Time;durP1;ratioP1;P1;durP2;ratioP2;P2;SDS_P1;SDS_P2;PMS_P1;PMS_P2;Temp;Humidity;BMP_temperature;BMP_pressure;BME280_temperature;BME280_humidity;BME280_pressure;Samples;Min_cycle;Max_cycle;Signal;HPM_P1;HPM_P2
2022/05/18 00:00:51;;;;;;;0.10;0.10;;;;;;;11.92;78.69;100426.59;7363762;19;20010;-58
2022/05/18 00:03:20;;;;;;;0.10;0.10;;;;;;;12.02;77.91;100445.47;7365005;19;20007;-57
2022/05/18 00:05:45;;;;;;;0.00;0.00;;;;;;;11.98;77.98;100428.16;7364188;19;20008;-58
2022/05/18 00:08:11;;;;;;;0.00;0.00;;;;;;;12.03;78.09;100447.19;7365299;19;20592;-57
2022/05/18 00:10:39;;;;;;;0.00;0.00;;;;;;;12.05;78.42;100453.22;7363541;19;20474;-59
2022/05/18 00:13:08;;;;;;;0.00;0.00;;;;;;;12.02;78.15;100453.34;7364963;19;20014;-57
2022/05/18 00:15:34;;;;;;;0.00;0.00;;;;;;;12.05;77.67;100445.34;7366397;19;20676;-56
2022/05/18 00:17:59;;;;;;;0.00;0.00;;;;;;;12.06;78.28;100454.06;7363018;19;20021;-57
2022/05/18 00:20:26;;;;;;;0.00;0.00;;;;;;;12.05;77.93;100450.59;7366622;19;20018;-57
2022/05/18 00:22:53;;;;;;;0.10;0.10;;;;;;;12.06;78.00;100449.69;7362054;19;20014;-56
2022/05/18 00:25:23;;;;;;;0.00;0.00;;;;;;;12.08;77.86;100444.41;7365026;19;20653;-56
2022/05/18 00:27:48;;;;;;;0.05;0.05;;;;;;;11.75;77.96;100404.47;7363665;19;20082;-58
2022/05/18 00:30:15;;;;;;;0.00;0.00;;;;;;;11.94;78.21;100442.25;7365408;19;20021;-56
2022/05/18 00:32:42;;;;;;;0.00;0.00;;;;;;;12.02;77.59;100455.94;7364186;19;20011;-59
2022/05/18 00:35:08;;;;;;;0.00;0.00;;;;;;;11.96;77.70;100456.13;7365763;19;20021;-59
2022/05/18 00:37:34;;;;;;;0.10;0.10;;;;;;;12.01;77.96;100469.91;7363972;19;20032;-58
2022/05/18 00:39:59;;;;;;;0.00;0.00;;;;;;;12.00;77.84;100459.50;7363168;19;20006;-56
2022/05/18 00:42:27;;;;;;;0.00;0.00;;;;;;;12.02;77.37;100450.72;7364662;19;20006;-58
2022/05/18 00:44:53;;;;;;;0.08;0.08;;;;;;;11.94;77.62;100447.47;7366032;19;20044;-58
2022/05/18 00:47:20;;;;;;;0.00;0.00;;;;;;;12.02;77.56;100455.09;7362833;19;20010;-59
2022/05/18 00:49:51;;;;;;;0.00;0.00;;;;;;;12.02;77.34;100458.56;7364158;19;20082;-57
2022/05/18 00:52:21;;;;;;;0.00;0.00;;;;;;;12.03;77.21;100448.94;7364710;19;20007;-57
2022/05/18 00:54:48;;;;;;;0.00;0.00;;;;;;;11.91;77.64;100431.88;7365885;19;21223;-58
2022/05/18 00:57:22;;;;;;;0.10;0.10;;;;;;;11.99;77.32;100449.94;7362280;19;20458;-57
2022/05/18 01:00:02;;;;;;;0.00;0.00;;;;;;;12.04;77.36;100461.13;7363387;19;20006;-58
2022/05/18 01:02:32;;;;;;;0.00;0.00;;;;;;;12.02;77.69;100465.56;7363379;19;20791;-57
2022/05/18 01:05:00;;;;;;;0.00;0.00;;;;;;;12.02;77.25;100463.81;7362201;19;20014;-58
2022/05/18 01:07:36;;;;;;;0.00;0.00;;;;;;;12.04;77.35;100475.06;7364573;19;20471;-59
2022/05/18 01:10:04;;;;;;;0.00;0.00;;;;;;;12.05;77.66;100487.22;7363574;19;20017;-58
2022/05/18 01:12:30;;;;;;;0.10;0.10;;;;;;;12.00;77.30;100476.06;7363417;19;20015;-57
2022/05/18 01:15:06;;;;;;;0.00;0.00;;;;;;;12.06;77.48;100482.84;7363933;19;20367;-58
2022/05/18 01:17:36;;;;;;;0.00;0.00;;;;;;;12.05;77.50;100482.00;7362673;19;20021;-58
2022/05/18 01:20:07;;;;;;;0.00;0.00;;;;;;;12.03;77.30;100489.06;7362950;19;20015;-57
2022/05/18 01:22:53;;;;;;;0.00;0.00;;;;;;;12.10;77.48;100501.03;7363120;19;20015;-58
2022/05/18 01:25:49;;;;;;;0.00;0.00;;;;;;;12.13;77.31;100495.72;7362225;19;20026;-56
2022/05/18 01:28:15;;;;;;;0.00;0.00;;;;;;;12.11;76.91;100487.03;7259540;19;2004283;-57
2022/05/18 01:30:45;;;;;;;0.00;0.00;;;;;;;12.09;77.24;100486.25;7362887;19;20018;-58
2022/05/18 01:33:11;;;;;;;0.00;0.00;;;;;;;12.09;77.03;100491.47;7362301;19;20002;-58
2022/05/18 01:35:43;;;;;;;0.00;0.00;;;;;;;12.14;77.13;100494.81;7362591;19;20922;-58
2022/05/18 01:38:12;;;;;;;0.10;0.10;;;;;;;12.13;76.71;100490.47;7363020;19;20010;-58
2022/05/18 01:41:09;;;;;;;0.00;0.00;;;;;;;12.16;76.73;100485.13;7358497;19;20017;-58
2022/05/18 01:43:41;;;;;;;0.00;0.00;;;;;;;12.02;76.69;100482.13;7262942;19;2004344;-56
2022/05/18 01:46:12;;;;;;;0.00;0.00;;;;;;;11.89;76.21;100483.41;7363491;19;20085;-58
2022/05/18 01:48:45;;;;;;;0.00;0.00;;;;;;;12.09;76.51;100494.09;7364225;19;20021;-57
2022/05/18 01:51:12;;;;;;;0.00;0.00;;;;;;;12.15;76.57;100513.97;7363132;19;20459;-58
2022/05/18 01:53:38;;;;;;;0.00;0.00;;;;;;;12.14;76.46;100539.28;7361606;19;20010;-57
2022/05/18 01:56:04;;;;;;;0.00;0.00;;;;;;;12.12;76.53;100519.31;7362791;19;20026;-59
2022/05/18 01:58:29;;;;;;;0.00;0.00;;;;;;;12.15;75.99;100532.28;7355083;19;20011;-59
2022/05/18 02:00:55;;;;;;;0.10;0.10;;;;;;;12.16;76.24;100532.25;7357771;19;20021;-57
2022/05/18 02:03:22;;;;;;;0.00;0.00;;;;;;;12.14;76.08;100534.06;7364817;19;20090;-58
2022/05/18 02:05:49;;;;;;;0.00;0.00;;;;;;;12.18;75.86;100535.69;7364409;19;20677;-58
2022/05/18 02:08:19;;;;;;;0.00;0.00;;;;;;;12.15;76.18;100530.53;7362911;19;20033;-58
2022/05/18 02:10:44;;;;;;;0.00;0.00;;;;;;;12.07;76.04;100495.91;7364106;19;20448;-57
2022/05/18 02:13:10;;;;;;;0.00;0.00;;;;;;;12.12;75.83;100514.94;7368098;19;20010;-58
2022/05/18 02:15:36;;;;;;;0.00;0.00;;;;;;;12.16;75.85;100521.75;7372018;19;20010;-58
2022/05/18 02:18:02;;;;;;;0.00;0.00;;;;;;;12.16;76.00;100515.69;7369876;19;20123;-58
2022/05/18 02:20:27;;;;;;;0.00;0.00;;;;;;;12.02;75.73;100492.59;7368881;19;20014;-58
2022/05/18 02:22:53;;;;;;;0.00;0.00;;;;;;;12.06;75.53;100509.88;7370592;19;20018;-57
2022/05/18 02:25:20;;;;;;;0.00;0.00;;;;;;;12.17;75.84;100533.97;7370551;19;20498;-59
2022/05/18 02:27:46;;;;;;;0.00;0.00;;;;;;;12.17;75.76;100544.44;7367760;19;20038;-59
2022/05/18 02:30:13;;;;;;;0.00;0.00;;;;;;;12.15;75.67;100546.25;7372097;19;20018;-57
2022/05/18 02:32:39;;;;;;;0.00;0.00;;;;;;;12.22;75.73;100523.38;7365814;19;20014;-59
2022/05/18 02:35:05;;;;;;;0.10;0.10;;;;;;;12.22;75.56;100540.84;7368366;19;20141;-58
2022/05/18 02:37:32;;;;;;;0.00;0.00;;;;;;;11.88;75.17;100468.63;7365028;19;20002;-58
2022/05/18 02:39:58;;;;;;;0.00;0.00;;;;;;;12.24;74.84;100533.78;7362432;19;20116;-58
2022/05/18 02:42:24;;;;;;;0.00;0.00;;;;;;;12.24;75.14;100539.00;7371591;19;20007;-59
2022/05/18 02:44:49;;;;;;;0.00;0.00;;;;;;;12.24;74.95;100546.88;7370534;19;20370;-58
2022/05/18 02:47:15;;;;;;;0.00;0.00;;;;;;;12.25;74.77;100540.72;7367936;19;20011;-57
2022/05/18 02:49:40;;;;;;;0.00;0.00;;;;;;;12.20;75.00;100538.25;7369808;19;20017;-59
2022/05/18 02:52:06;;;;;;;0.00;0.00;;;;;;;12.12;74.74;100533.28;7368225;19;20011;-58
2022/05/18 02:57:15;;;;;;;0.00;0.00;;;;;;;12.21;74.81;100555.66;7368986;19;20420;-59
2022/05/18 02:59:43;;;;;;;0.10;0.10;;;;;;;12.23;74.87;100560.88;7368084;19;20078;-58
2022/05/18 03:02:08;;;;;;;0.00;0.00;;;;;;;12.16;74.86;100558.41;7369847;19;20018;-58
2022/05/18 03:04:34;;;;;;;0.00;0.00;;;;;;;12.16;75.12;100566.28;7360689;19;20010;-59
2022/05/18 03:06:59;;;;;;;0.00;0.00;;;;;;;12.10;74.58;100558.63;7366305;19;20426;-58
2022/05/18 03:09:25;;;;;;;0.00;0.00;;;;;;;12.17;74.67;100568.00;7370901;19;20021;-58
2022/05/18 03:11:50;;;;;;;0.00;0.00;;;;;;;12.15;74.99;100576.78;7363548;19;20043;-58
2022/05/18 03:14:17;;;;;;;0.00;0.00;;;;;;;12.08;74.30;100565.66;7370828;19;20549;-58
2022/05/18 03:16:44;;;;;;;0.00;0.00;;;;;;;12.10;74.46;100574.31;7358141;19;20373;-59
2022/05/18 03:19:10;;;;;;;0.00;0.00;;;;;;;12.14;74.79;100602.13;7360754;19;20046;-58
2022/05/18 03:24:20;;;;;;;0.00;0.00;;;;;;;12.05;74.66;100576.22;7367302;19;20468;-58
2022/05/18 03:26:45;;;;;;;0.00;0.00;;;;;;;11.94;74.75;100562.63;7367950;19;20014;-58
2022/05/18 03:29:12;;;;;;;0.00;0.00;;;;;;;11.95;74.43;100561.72;7369322;19;20776;-57
2022/05/18 03:31:38;;;;;;;0.00;0.00;;;;;;;12.09;74.08;100588.31;7367620;19;20015;-58
2022/05/18 03:34:03;;;;;;;0.00;0.00;;;;;;;12.08;74.55;100589.22;7366764;19;20013;-57
2022/05/18 03:36:29;;;;;;;0.00;0.00;;;;;;;12.01;74.75;100579.84;7369592;19;20030;-57
2022/05/18 03:38:55;;;;;;;0.10;0.10;;;;;;;12.11;74.53;100601.34;7369863;19;20672;-58
2022/05/18 03:41:20;;;;;;;0.00;0.00;;;;;;;12.10;74.58;100600.50;7368466;19;20002;-58
2022/05/18 03:43:46;;;;;;;0.00;0.00;;;;;;;12.09;74.80;100593.56;7369874;19;20014;-58
2022/05/18 03:46:13;;;;;;;0.00;0.00;;;;;;;12.05;74.30;100584.06;7365319;19;20041;-59
2022/05/18 03:48:39;;;;;;;0.00;0.00;;;;;;;12.09;74.56;100598.78;7368719;19;20183;-60
2022/05/18 03:51:07;;;;;;;0.00;0.00;;;;;;;12.12;74.33;100590.84;7370848;19;20033;-59
2022/05/18 03:53:33;;;;;;;0.00;0.00;;;;;;;12.09;74.80;100598.78;7369260;19;20031;-58
2022/05/18 03:55:59;;;;;;;0.00;0.00;;;;;;;11.98;74.75;100590.41;7370185;19;20014;-58
2022/05/18 03:58:24;;;;;;;0.00;0.00;;;;;;;12.12;74.46;100590.00;7367965;19;20011;-58
2022/05/18 04:00:53;;;;;;;0.00;0.00;;;;;;;11.95;74.45;100569.56;7366824;19;20030;-59
2022/05/18 04:03:21;;;;;;;0.00;0.00;;;;;;;12.10;74.81;100605.72;7368913;19;20340;-59
2022/05/18 04:05:50;;;;;;;0.00;0.00;;;;;;;12.15;74.64;100616.06;7368871;19;20022;-58
2022/05/18 04:08:16;;;;;;;0.00;0.00;;;;;;;12.13;74.56;100617.88;7367877;19;20016;-59
2022/05/18 04:10:41;;;;;;;0.00;0.00;;;;;;;12.13;74.53;100630.97;7366914;19;20066;-58
2022/05/18 04:13:11;;;;;;;0.00;0.00;;;;;;;12.13;74.44;100626.59;7369584;19;20013;-58
2022/05/18 04:15:36;;;;;;;0.00;0.00;;;;;;;12.15;75.15;100639.63;7367878;19;20857;-57
2022/05/18 04:18:03;;;;;;;0.00;0.00;;;;;;;12.12;74.53;100645.81;7367279;19;20018;-57
2022/05/18 04:20:29;;;;;;;0.00;0.00;;;;;;;11.98;74.84;100611.34;7368397;19;20031;-57
2022/05/18 04:22:54;;;;;;;0.00;0.00;;;;;;;11.95;75.06;100611.44;7366874;19;20015;-59
2022/05/18 04:25:23;;;;;;;0.00;0.00;;;;;;;12.12;75.32;100630.13;7367582;19;20736;-59
2022/05/18 04:27:48;;;;;;;0.00;0.00;;;;;;;12.08;75.13;100646.81;7367567;19;20015;-58
2022/05/18 04:30:19;;;;;;;0.00;0.00;;;;;;;12.09;74.92;100645.06;7368803;19;20423;-58
2022/05/18 04:32:45;;;;;;;0.03;0.03;;;;;;;12.08;74.87;100657.28;7368495;19;20017;-58
2022/05/18 04:35:18;;;;;;;0.00;0.00;;;;;;;11.97;74.99;100634.97;7366729;19;20014;-58
2022/05/18 04:37:43;;;;;;;0.00;0.00;;;;;;;11.97;74.78;100638.44;7364949;19;20132;-57
2022/05/18 04:40:10;;;;;;;0.10;0.10;;;;;;;12.09;74.81;100653.75;7367651;19;20006;-57
2022/05/18 04:42:36;;;;;;;0.05;0.05;;;;;;;12.03;74.94;100656.56;7368104;19;20015;-58
2022/05/18 04:45:02;;;;;;;0.10;0.10;;;;;;;11.99;74.60;100647.06;7366220;19;19999;-58
2022/05/18 04:47:28;;;;;;;0.00;0.00;;;;;;;11.92;75.12;100642.94;7367870;19;20014;-57
2022/05/18 04:49:55;;;;;;;0.00;0.00;;;;;;;11.97;74.87;100655.88;7369391;19;20006;-59
2022/05/18 04:52:20;;;;;;;0.00;0.00;;;;;;;12.09;74.83;100676.47;7368265;19;20029;-57
2022/05/18 04:54:47;;;;;;;0.00;0.00;;;;;;;11.98;74.79;100674.16;7367301;19;20458;-57
2022/05/18 04:57:12;;;;;;;0.00;0.00;;;;;;;12.05;74.41;100686.16;7365321;19;20017;-57
2022/05/18 04:59:38;;;;;;;0.00;0.00;;;;;;;12.09;74.40;100695.63;7363682;19;20069;-57
2022/05/18 05:02:04;;;;;;;0.00;0.00;;;;;;;12.09;74.90;100702.63;7367256;19;20342;-57
2022/05/18 05:04:30;;;;;;;0.05;0.05;;;;;;;11.96;74.32;100686.41;7366327;19;20466;-59
2022/05/18 05:06:56;;;;;;;0.00;0.00;;;;;;;12.12;74.27;100716.50;7367017;19;20012;-57
2022/05/18 05:09:24;;;;;;;0.00;0.00;;;;;;;12.07;74.53;100709.69;7367757;19;20016;-58
2022/05/18 05:11:53;;;;;;;0.00;0.00;;;;;;;12.14;74.09;100717.31;7368816;19;20018;-58
2022/05/18 05:14:20;;;;;;;0.00;0.00;;;;;;;12.14;74.11;100717.31;7366115;19;20011;-58
2022/05/18 05:16:46;;;;;;;0.00;0.00;;;;;;;12.12;74.52;100708.66;7363947;19;20031;-59
2022/05/18 05:19:12;;;;;;;0.00;0.00;;;;;;;12.14;74.74;100712.06;7366942;19;20006;-58
2022/05/18 05:21:42;;;;;;;0.08;0.08;;;;;;;12.10;75.06;100715.66;7366598;19;20016;-59
2022/05/18 05:24:09;;;;;;;0.10;0.10;;;;;;;12.18;74.28;100729.41;7365803;19;20013;-58
2022/05/18 05:26:35;;;;;;;0.00;0.00;;;;;;;12.18;74.55;100724.16;7366568;19;20358;-59
2022/05/18 05:29:01;;;;;;;0.00;0.00;;;;;;;12.22;74.42;100724.09;7365450;19;20002;-58
2022/05/18 05:31:26;;;;;;;0.05;0.05;;;;;;;12.23;74.10;100725.81;7366773;19;20014;-58
2022/05/18 05:33:52;;;;;;;0.00;0.00;;;;;;;12.24;74.56;100730.13;7364141;19;20003;-58
2022/05/18 05:36:17;;;;;;;0.00;0.00;;;;;;;12.14;74.39;100719.91;7365675;19;20062;-59
2022/05/18 05:38:43;;;;;;;0.00;0.00;;;;;;;12.28;74.10;100739.63;7367324;19;20019;-57
2022/05/18 05:41:08;;;;;;;0.00;0.00;;;;;;;12.29;74.70;100736.94;7366672;19;20014;-59
2022/05/18 05:43:34;;;;;;;0.03;0.03;;;;;;;12.32;74.48;100725.53;7365594;19;20074;-59
2022/05/18 05:46:05;;;;;;;0.00;0.00;;;;;;;12.37;74.60;100744.59;7362591;19;20026;-59
2022/05/18 05:48:32;;;;;;;0.00;0.00;;;;;;;12.38;74.23;100735.81;7365115;19;20145;-59
2022/05/18 05:50:58;;;;;;;0.00;0.00;;;;;;;12.46;74.19;100749.53;7365774;19;20015;-57
2022/05/18 05:53:24;;;;;;;0.00;0.00;;;;;;;12.49;74.73;100741.59;7365626;19;20107;-57
2022/05/18 05:55:50;;;;;;;0.00;0.00;;;;;;;12.55;74.48;100745.78;7365034;19;20014;-58
2022/05/18 05:58:17;;;;;;;0.00;0.00;;;;;;;12.56;74.62;100750.13;7364130;19;20026;-59
2022/05/18 06:00:43;;;;;;;0.00;0.00;;;;;;;12.66;74.63;100751.56;7363466;19;20015;-58
2022/05/18 06:03:08;;;;;;;0.00;0.00;;;;;;;12.71;74.42;100750.50;7363942;19;20010;-57
2022/05/18 06:05:34;;;;;;;0.00;0.00;;;;;;;12.75;74.26;100758.28;7363586;19;20521;-58
2022/05/18 06:07:59;;;;;;;0.00;0.00;;;;;;;12.84;74.22;100771.97;7361093;19;20018;-57
2022/05/18 06:10:24;;;;;;;0.10;0.10;;;;;;;12.93;73.97;100776.06;7364188;19;20578;-58
2022/05/18 06:12:50;;;;;;;0.03;0.03;;;;;;;12.95;73.94;100769.00;7363724;19;20011;-59
2022/05/18 06:15:16;;;;;;;0.00;0.00;;;;;;;12.97;73.57;100760.19;7361232;19;20011;-58
2022/05/18 06:17:41;;;;;;;0.00;0.00;;;;;;;13.03;73.54;100772.25;7362689;19;20103;-58
2022/05/18 06:20:07;;;;;;;0.00;0.00;;;;;;;13.07;73.46;100768.59;7363268;19;20046;-58
2022/05/18 06:22:33;;;;;;;0.08;0.08;;;;;;;13.13;72.94;100784.16;7363120;19;20014;-58
2022/05/18 06:24:59;;;;;;;0.00;0.00;;;;;;;13.16;73.19;100783.19;7361216;19;20036;-58
2022/05/18 06:27:24;;;;;;;0.00;0.00;;;;;;;13.12;73.23;100782.44;7361556;19;20036;-58
2022/05/18 06:29:50;;;;;;;0.00;0.00;;;;;;;13.22;73.12;100789.13;7361388;19;20014;-57
2022/05/18 06:32:17;;;;;;;0.00;0.00;;;;;;;13.28;72.61;100797.69;7359841;19;20490;-59
2022/05/18 06:34:44;;;;;;;0.00;0.00;;;;;;;13.32;72.55;100809.81;7362748;19;20014;-58
2022/05/18 06:37:10;;;;;;;0.10;0.10;;;;;;;13.35;73.00;100807.09;7359879;19;20116;-59
2022/05/18 06:39:36;;;;;;;0.00;0.00;;;;;;;13.38;72.73;100809.59;7362079;19;20030;-58
2022/05/18 06:42:01;;;;;;;0.00;0.00;;;;;;;13.42;72.76;100809.47;7362126;19;20368;-57
2022/05/18 06:44:27;;;;;;;0.00;0.00;;;;;;;13.47;72.28;100819.81;7361673;19;20433;-57
2022/05/18 06:46:52;;;;;;;0.00;0.00;;;;;;;13.49;72.27;100821.50;7360027;19;20014;-58
2022/05/18 06:49:19;;;;;;;0.00;0.00;;;;;;;13.53;72.32;100830.09;7362140;19;20591;-59
2022/05/18 06:51:46;;;;;;;0.10;0.10;;;;;;;13.56;72.26;100835.25;7362497;19;20030;-58
2022/05/18 06:54:12;;;;;;;0.05;0.05;;;;;;;13.62;72.20;100835.03;7360161;19;20044;-59
2022/05/18 06:56:40;;;;;;;0.00;0.00;;;;;;;13.69;72.03;100841.81;7356248;19;20423;-58
2022/05/18 06:59:07;;;;;;;0.00;0.00;;;;;;;13.76;72.19;100832.81;7363635;19;20471;-58
2022/05/18 07:01:33;;;;;;;0.00;0.00;;;;;;;13.83;71.34;100830.84;7368490;19;20007;-58
2022/05/18 07:03:59;;;;;;;0.00;0.00;;;;;;;13.88;71.67;100838.56;7367603;19;20035;-57
2022/05/18 07:06:27;;;;;;;0.00;0.00;;;;;;;13.81;71.41;100816.94;7367646;19;20014;-58
2022/05/18 07:08:54;;;;;;;;;;;;;;;14.07;72.79;100847.53;7367963;19;20011;-59
2022/05/18 07:11:20;;;;;;;;;;;;;;;14.17;72.22;100846.28;7372485;19;19931;-58
2022/05/18 07:13:51;;;;;;;0.00;0.00;;;;;;;14.19;70.35;100843.59;7367628;19;19946;-59
2022/05/18 07:16:18;;;;;;;0.00;0.00;;;;;;;14.23;70.48;100838.19;7367084;19;20019;-59
2022/05/18 07:18:45;;;;;;;0.10;0.10;;;;;;;14.29;70.16;100842.38;7368947;19;20010;-57
2022/05/18 07:21:11;;;;;;;0.05;0.05;;;;;;;14.36;70.35;100848.28;7368107;19;20593;-58
2022/05/18 07:23:36;;;;;;;0.00;0.00;;;;;;;14.46;69.23;100839.16;7367575;19;20521;-57
2022/05/18 07:26:02;;;;;;;0.08;0.08;;;;;;;14.50;69.81;100840.78;7367047;19;20023;-58
2022/05/18 07:28:28;;;;;;;0.10;0.10;;;;;;;14.46;68.69;100834.75;7368027;19;20006;-58
2022/05/18 07:30:54;;;;;;;0.10;0.10;;;;;;;14.60;68.60;100842.16;7368759;19;20041;-60
2022/05/18 07:33:21;;;;;;;0.10;0.10;;;;;;;14.69;68.71;100841.78;7367625;19;20760;-58
2022/05/18 07:35:48;;;;;;;0.00;0.00;;;;;;;14.63;68.55;100825.41;7368190;19;20011;-59
2022/05/18 07:38:14;;;;;;;0.00;0.00;;;;;;;14.84;67.70;100850.88;7369300;19;20014;-58
2022/05/18 07:40:40;;;;;;;0.10;0.10;;;;;;;14.90;68.00;100850.69;7370906;19;20015;-57
2022/05/18 07:43:06;;;;;;;0.00;0.00;;;;;;;14.91;68.30;100843.63;7368012;19;20018;-58
2022/05/18 07:45:33;;;;;;;0.00;0.00;;;;;;;15.01;68.01;100858.16;7370011;19;20014;-59
2022/05/18 07:47:58;;;;;;;0.00;0.00;;;;;;;15.11;67.05;100859.50;7366351;19;20014;-58
2022/05/18 07:50:25;;;;;;;0.00;0.00;;;;;;;15.04;65.92;100834.34;7365709;19;20044;-58
2022/05/18 07:52:52;;;;;;;0.08;0.08;;;;;;;15.22;66.31;100862.56;7368145;19;20466;-60
2022/05/18 07:55:18;;;;;;;0.00;0.00;;;;;;;15.27;65.13;100860.63;7358783;19;20010;-59
2022/05/18 07:57:44;;;;;;;0.03;0.03;;;;;;;15.32;66.25;100869.19;7366282;19;20039;-57
2022/05/18 08:00:11;;;;;;;0.00;0.00;;;;;;;15.34;65.75;100866.47;7367260;19;20040;-59
2022/05/18 08:02:38;;;;;;;0.00;0.00;;;;;;;15.35;65.32;100867.31;7367463;19;20031;-59
2022/05/18 08:05:04;;;;;;;0.00;0.00;;;;;;;15.30;65.33;100851.72;7368661;19;20006;-59
2022/05/18 08:07:29;;;;;;;0.00;0.00;;;;;;;15.43;64.75;100870.53;7368692;19;20010;-57
2022/05/18 08:15:23;;;;;;;0.00;0.00;;;;;;;15.44;64.59;100845.91;7368602;19;20017;-60
2022/05/18 08:17:49;;;;;;;0.00;0.00;;;;;;;15.53;64.91;100861.34;7369405;19;21349;-60
2022/05/18 08:20:17;;;;;;;0.03;0.03;;;;;;;15.58;66.68;100859.38;7368980;19;20024;-59
2022/05/18 08:22:43;;;;;;;0.10;0.10;;;;;;;15.59;64.25;100855.81;7368149;19;21398;-58
2022/05/18 08:25:10;;;;;;;0.00;0.00;;;;;;;15.62;64.90;100839.91;7368811;19;20027;-57
2022/05/18 08:27:40;;;;;;;0.00;0.00;;;;;;;15.67;65.46;100845.88;7367500;19;20006;-59
2022/05/18 08:30:07;;;;;;;0.00;0.00;;;;;;;15.79;65.55;100857.66;7364705;19;20832;-58
2022/05/18 08:32:32;;;;;;;0.00;0.00;;;;;;;15.86;65.40;100858.25;7369482;19;20014;-59
2022/05/18 08:34:58;;;;;;;0.00;0.00;;;;;;;15.96;64.26;100859.56;7366180;19;20013;-59
2022/05/18 08:37:24;;;;;;;0.00;0.00;;;;;;;16.06;64.62;100866.16;7368258;19;20049;-59
2022/05/18 08:39:51;;;;;;;0.00;0.00;;;;;;;16.16;64.10;100870.13;7368110;19;20011;-58
2022/05/18 08:42:19;;;;;;;0.10;0.10;;;;;;;16.23;63.22;100858.41;7369085;19;22214;-58
2022/05/18 08:44:45;;;;;;;0.00;0.00;;;;;;;16.27;63.81;100867.00;7365681;19;20022;-58
2022/05/18 08:47:16;;;;;;;0.03;0.03;;;;;;;16.31;63.54;100861.53;7368272;19;20023;-58
2022/05/18 08:49:54;;;;;;;0.10;0.10;;;;;;;16.33;64.34;100854.44;7366347;19;20026;-57
2022/05/18 08:52:34;;;;;;;0.00;0.00;;;;;;;16.46;63.95;100870.56;7367519;19;20018;-58
2022/05/18 08:55:37;;;;;;;0.00;0.00;;;;;;;16.58;65.28;100866.53;7366809;19;20023;-58
2022/05/18 08:58:09;;;;;;;0.10;0.10;;;;;;;16.57;62.96;100864.81;7263028;19;2004400;-59
2022/05/18 09:00:47;;;;;;;0.00;0.00;;;;;;;16.44;63.50;100824.13;7366980;19;20015;-58
2022/05/18 09:03:22;;;;;;;0.00;0.00;;;;;;;16.74;61.76;100858.81;7368607;19;20466;-58
2022/05/18 09:06:14;;;;;;;0.10;0.10;;;;;;;16.88;61.71;100866.97;7364943;19;20653;-59
2022/05/18 09:08:47;;;;;;;0.00;0.00;;;;;;;16.93;60.33;100874.63;7260171;19;2004044;-58
2022/05/18 09:11:21;;;;;;;0.00;0.00;;;;;;;16.99;61.07;100871.72;7368103;19;20452;-58
2022/05/18 09:13:47;;;;;;;0.10;0.10;;;;;;;17.03;60.08;100876.78;7367615;19;20082;-59
2022/05/18 09:16:42;;;;;;;0.00;0.00;;;;;;;17.18;61.61;100869.06;7366987;19;20458;-59
2022/05/18 09:19:29;;;;;;;0.00;0.00;;;;;;;17.31;60.20;100865.78;7264294;19;2004411;-60
2022/05/18 09:22:01;;;;;;;0.00;0.00;;;;;;;17.42;59.20;100848.56;7368223;19;20011;-57
2022/05/18 09:24:29;;;;;;;0.00;0.00;;;;;;;17.57;59.19;100847.81;7365682;19;20014;-57
2022/05/18 09:26:54;;;;;;;0.00;0.00;;;;;;;17.73;58.59;100846.16;7364609;19;20767;-57
2022/05/18 09:29:41;;;;;;;0.00;0.00;;;;;;;17.91;59.04;100854.94;7367484;19;20018;-58
2022/05/18 09:32:28;;;;;;;0.00;0.00;;;;;;;18.09;57.95;100847.84;7366196;19;20688;-58
2022/05/18 09:35:17;;;;;;;0.10;0.10;;;;;;;18.16;57.87;100841.31;7365957;19;20073;-59
2022/05/18 09:38:01;;;;;;;0.03;0.03;;;;;;;18.36;59.26;100827.91;7363316;19;20027;-58
2022/05/18 09:40:31;;;;;;;0.00;0.00;;;;;;;18.55;57.64;100838.38;7361975;19;20402;-59
2022/05/18 09:43:18;;;;;;;0.10;0.10;;;;;;;18.80;59.10;100824.69;7367730;19;20017;-57
2022/05/18 09:45:47;;;;;;;0.10;0.10;;;;;;;19.04;57.77;100834.84;7363746;19;20045;-58
2022/05/18 09:48:16;;;;;;;0.10;0.10;;;;;;;19.36;55.77;100825.09;7366752;19;20010;-58
2022/05/18 09:50:44;;;;;;;0.05;0.05;;;;;;;19.70;55.91;100826.66;7365084;19;20036;-59
2022/05/18 09:53:11;;;;;;;0.10;0.10;;;;;;;20.01;54.59;100814.25;7364507;19;20014;-57
2022/05/18 09:55:37;;;;;;;0.10;0.10;;;;;;;20.32;54.81;100829.13;7365176;19;20013;-57
2022/05/18 09:58:13;;;;;;;0.10;0.10;;;;;;;20.71;54.56;100825.84;7363437;19;20013;-58
2022/05/18 10:00:39;;;;;;;0.10;0.10;;;;;;;20.98;52.86;100808.19;7366622;19;20011;-60
2022/05/18 10:08:57;;;;;;;0.00;0.00;;;;;;;22.13;47.60;100789.06;7264631;19;2004397;-58
2022/05/18 10:11:34;;;;;;;0.10;0.10;;;;;;;22.47;52.16;100785.72;7366128;19;20006;-59
2022/05/18 10:14:11;;;;;;;0.05;0.05;;;;;;;22.69;49.96;100782.38;7364323;19;20009;-58
2022/05/18 10:16:41;;;;;;;0.10;0.10;;;;;;;22.75;44.60;100773.09;7364293;19;20020;-57
2022/05/18 10:19:21;;;;;;;0.10;0.10;;;;;;;22.97;48.11;100767.94;7360869;19;20012;-58
2022/05/18 10:21:56;;;;;;;0.10;0.10;;;;;;;23.14;45.73;100773.84;7363680;19;20094;-59
2022/05/18 10:24:39;;;;;;;0.00;0.00;;;;;;;23.30;46.08;100780.56;7365575;19;20530;-58
2022/05/18 10:27:16;;;;;;;0.10;0.10;;;;;;;23.30;45.25;100777.91;7362644;19;20031;-60
2022/05/18 10:30:09;;;;;;;0.13;0.13;;;;;;;23.26;45.50;100764.91;7362106;19;20037;-57
2022/05/18 10:32:52;;;;;;;0.10;0.10;;;;;;;23.20;41.03;100773.38;7262202;19;2004233;-59
2022/05/18 10:35:38;;;;;;;0.00;0.00;;;;;;;23.22;43.03;100760.81;7370956;19;20006;-58
2022/05/18 10:38:24;;;;;;;0.10;0.10;;;;;;;23.08;43.63;100766.31;7369746;19;20011;-59
2022/05/18 10:41:14;;;;;;;0.10;0.10;;;;;;;23.11;43.07;100766.91;7371784;19;20631;-59
2022/05/18 10:43:44;;;;;;;0.10;0.10;;;;;;;22.99;40.41;100760.69;7370737;19;20019;-58
2022/05/18 10:46:17;;;;;;;0.10;0.10;;;;;;;22.85;41.34;100766.13;7370864;19;20018;-57
2022/05/18 10:48:53;;;;;;;0.10;0.10;;;;;;;22.72;42.10;100754.69;7369975;19;20107;-58
2022/05/18 10:51:32;;;;;;;0.10;0.10;;;;;;;22.51;42.84;100757.09;7371530;19;20010;-58
2022/05/18 10:54:24;;;;;;;0.10;0.10;;;;;;;22.38;43.47;100775.72;7370360;19;20006;-57
2022/05/18 10:56:51;;;;;;;0.10;0.10;;;;;;;22.18;40.18;100785.09;7268451;19;2004836;-59
2022/05/18 10:59:38;;;;;;;0.10;0.10;;;;;;;22.03;41.04;100787.00;7369122;19;20766;-58
2022/05/18 11:02:15;;;;;;;0.10;0.10;;;;;;;21.83;41.96;100774.22;7369352;19;20475;-58
2022/05/18 11:04:51;;;;;;;0.10;0.10;;;;;;;21.67;42.49;100758.47;7370904;19;20339;-58
2022/05/18 11:07:24;;;;;;;0.10;0.10;;;;;;;21.49;40.63;100755.28;7369465;19;20106;-57
2022/05/18 11:09:49;;;;;;;0.10;0.10;;;;;;;21.29;42.33;100761.03;7371009;19;20025;-58
2022/05/18 11:12:43;;;;;;;0.10;0.10;;;;;;;21.19;45.43;100757.28;7368840;19;20006;-58
2022/05/18 11:15:25;;;;;;;0.05;0.05;;;;;;;20.99;47.39;100751.47;7266905;19;2004662;-59
2022/05/18 11:18:28;;;;;;;0.10;0.10;;;;;;;20.97;48.18;100758.66;7370457;19;20010;-58
2022/05/18 11:21:30;;;;;;;0.08;0.08;;;;;;;20.89;48.37;100755.69;7268805;19;2004221;-59
2022/05/18 11:24:02;;;;;;;0.10;0.10;;;;;;;20.86;49.41;100755.88;7267505;19;2004027;-57
2022/05/18 11:26:33;;;;;;;0.10;0.10;;;;;;;20.81;49.98;100744.69;7369076;19;20002;-58
2022/05/18 11:29:20;;;;;;;0.10;0.10;;;;;;;20.91;49.72;100737.84;7369234;19;20465;-57
2022/05/18 11:32:03;;;;;;;0.10;0.10;;;;;;;20.96;48.04;100741.03;7367807;19;20106;-59
2022/05/18 11:34:44;;;;;;;0.08;0.08;;;;;;;20.95;47.93;100728.72;7369895;19;20015;-59
2022/05/18 11:37:21;;;;;;;0.10;0.10;;;;;;;20.94;46.11;100729.69;7368411;19;20002;-57
2022/05/18 11:40:06;;;;;;;0.10;0.10;;;;;;;20.99;47.58;100730.25;7369402;19;20010;-57
2022/05/18 11:42:52;;;;;;;0.10;0.10;;;;;;;21.01;47.85;100727.47;7368630;19;20016;-58
2022/05/18 11:45:25;;;;;;;0.10;0.10;;;;;;;21.02;47.42;100731.81;7367388;19;20002;-59
2022/05/18 11:48:14;;;;;;;0.10;0.10;;;;;;;21.04;46.44;100729.09;7368262;19;20036;-58
2022/05/18 11:51:23;;;;;;;0.10;0.10;;;;;;;21.10;47.51;100728.69;7368303;19;20458;-58
2022/05/18 11:54:03;;;;;;;0.10;0.10;;;;;;;21.14;47.54;100732.84;7267184;19;2004445;-59